Terminal Aerodrome Forecast
Issued by NWS State College, PA

Current Version | Previous Version | Text Only | Print | Product List | Glossary On
Versions: 1 2 3 4 5 6 7 8 9 10 11 12 13 14 15 16 17 18 19 20 21 22 23 24 25 26 27 28 29 30 31 32 33 34 35 36 37 38 39 40 41 42 43 44 45 46 47 48 49 50
000
FTUS41 KCTP 211740
TAFIPT
TAF
KIPT 211740Z 2118/2218 29005KT P6SM SCT250
     FM220800 VRB04KT 3SM BR BKN003
     FM221000 00000KT 3/4SM BR OVC003
      TEMPO 2210/2212 1/4SM FG
     FM221400 31004KT P6SM SKC=

USA.gov is the U.S. government's official web portal to all federal, state and local government web resources and services.